N129DC -KMTJ
Flight info
| Callsign | N129DC |
|---|---|
| Flight time | N/A |
| Altitude | 16500 |
| Route | |
| Aircraft | T28/L-DOV/C |
Departure
| Time | N/A |
|---|---|
| Airport | - |
Arrival
| Time | 2026-04-19 13:24 |
|---|---|
| Airport | Montrose Regional Airport (KMTJ) |
| Time | Latitude | Longitude | Altitude | Speed | Heading |
|---|---|---|---|---|---|
| 2026-04-19 13:03 | 38.88149 | -107.04266 | 16494 ft | 194 kts | 256° |
| 2026-04-19 13:04 | 38.87770 | -107.05936 | 16495 ft | 194 kts | 256° |
| 2026-04-19 13:04 | 38.87391 | -107.07601 | 16495 ft | 195 kts | 256° |
| 2026-04-19 13:04 | 38.87012 | -107.09267 | 16496 ft | 195 kts | 256° |
| 2026-04-19 13:04 | 38.86633 | -107.10935 | 16494 ft | 194 kts | 256° |
| 2026-04-19 13:05 | 38.86256 | -107.12584 | 16484 ft | 195 kts | 256° |
| 2026-04-19 13:05 | 38.85876 | -107.14258 | 16483 ft | 195 kts | 256° |
| 2026-04-19 13:05 | 38.85492 | -107.15940 | 16485 ft | 195 kts | 256° |
| 2026-04-19 13:05 | 38.85109 | -107.17611 | 16486 ft | 195 kts | 256° |
| 2026-04-19 13:06 | 38.84731 | -107.19264 | 16486 ft | 195 kts | 256° |
| 2026-04-19 13:06 | 38.84349 | -107.20932 | 16496 ft | 194 kts | 256° |
| 2026-04-19 13:06 | 38.83968 | -107.22596 | 16500 ft | 194 kts | 256° |
| 2026-04-19 13:06 | 38.83770 | -107.24286 | 16493 ft | 189 kts | 269° |
| 2026-04-19 13:07 | 38.83948 | -107.25966 | 16356 ft | 192 kts | 282° |
| 2026-04-19 13:07 | 38.84290 | -107.27637 | 16207 ft | 194 kts | 282° |
| 2026-04-19 13:07 | 38.84646 | -107.29288 | 16099 ft | 194 kts | 283° |
| 2026-04-19 13:07 | 38.85017 | -107.30949 | 16004 ft | 192 kts | 283° |
| 2026-04-19 13:08 | 38.85395 | -107.32589 | 15875 ft | 192 kts | 283° |
| 2026-04-19 13:08 | 38.85781 | -107.34239 | 15708 ft | 194 kts | 283° |
| 2026-04-19 13:08 | 38.86176 | -107.35902 | 15596 ft | 194 kts | 284° |
| 2026-04-19 13:08 | 38.86567 | -107.37554 | 15518 ft | 193 kts | 284° |
| 2026-04-19 13:09 | 38.86952 | -107.39203 | 15420 ft | 192 kts | 283° |
| 2026-04-19 13:09 | 38.87328 | -107.40828 | 15326 ft | 192 kts | 282° |
| 2026-04-19 13:09 | 38.87553 | -107.42477 | 15374 ft | 184 kts | 273° |
| 2026-04-19 13:09 | 38.87570 | -107.44121 | 15275 ft | 185 kts | 266° |
| 2026-04-19 13:10 | 38.87456 | -107.45784 | 15130 ft | 189 kts | 263° |
| 2026-04-19 13:10 | 38.87315 | -107.47481 | 14976 ft | 192 kts | 263° |
| 2026-04-19 13:10 | 38.87164 | -107.49152 | 14910 ft | 189 kts | 262° |
| 2026-04-19 13:10 | 38.87006 | -107.50823 | 14813 ft | 188 kts | 262° |
| 2026-04-19 13:11 | 38.86844 | -107.52485 | 14670 ft | 188 kts | 262° |
| 2026-04-19 13:11 | 38.86679 | -107.54155 | 14499 ft | 189 kts | 262° |
| 2026-04-19 13:11 | 38.86513 | -107.55832 | 14370 ft | 188 kts | 261° |
| 2026-04-19 13:11 | 38.86349 | -107.57489 | 14264 ft | 186 kts | 261° |
| 2026-04-19 13:12 | 38.86187 | -107.59143 | 14115 ft | 187 kts | 261° |
| 2026-04-19 13:12 | 38.86024 | -107.60812 | 13928 ft | 190 kts | 261° |
| 2026-04-19 13:12 | 38.85863 | -107.62479 | 13786 ft | 190 kts | 261° |
| 2026-04-19 13:12 | 38.85704 | -107.64153 | 13698 ft | 187 kts | 261° |
| 2026-04-19 13:13 | 38.85551 | -107.65800 | 13545 ft | 186 kts | 261° |
| 2026-04-19 13:13 | 38.85397 | -107.67466 | 13272 ft | 191 kts | 261° |
| 2026-04-19 13:13 | 38.85241 | -107.69175 | 13052 ft | 193 kts | 261° |
| 2026-04-19 13:13 | 38.85091 | -107.70862 | 12914 ft | 188 kts | 261° |
| 2026-04-19 13:14 | 38.84994 | -107.71967 | 12730 ft | 189 kts | 261° |
| 2026-04-19 13:14 | 38.84844 | -107.73673 | 12389 ft | 195 kts | 261° |
| 2026-04-19 13:14 | 38.84644 | -107.75978 | 11981 ft | 198 kts | 261° |
| 2026-04-19 13:14 | 38.84491 | -107.77742 | 11671 ft | 200 kts | 262° |
| 2026-04-19 13:15 | 38.84387 | -107.78942 | 11460 ft | 201 kts | 262° |
| 2026-04-19 13:15 | 38.84231 | -107.80713 | 11167 ft | 203 kts | 262° |
| 2026-04-19 13:15 | 38.84029 | -107.82494 | 10955 ft | 198 kts | 254° |
| 2026-04-19 13:15 | 38.83402 | -107.84007 | 10882 ft | 188 kts | 229° |
| 2026-04-19 13:16 | 38.82379 | -107.85115 | 10451 ft | 199 kts | 217° |
| 2026-04-19 13:16 | 38.81257 | -107.86173 | 10174 ft | 199 kts | 216° |
| 2026-04-19 13:16 | 38.80140 | -107.87217 | 9922 ft | 198 kts | 216° |
| 2026-04-19 13:16 | 38.79039 | -107.88242 | 9662 ft | 197 kts | 215° |
| 2026-04-19 13:17 | 38.77930 | -107.89274 | 9421 ft | 196 kts | 215° |
| 2026-04-19 13:17 | 38.76730 | -107.90088 | 9183 ft | 195 kts | 200° |
| 2026-04-19 13:17 | 38.75433 | -107.90605 | 8951 ft | 195 kts | 196° |
| 2026-04-19 13:17 | 38.74133 | -107.91091 | 8731 ft | 192 kts | 195° |
| 2026-04-19 13:18 | 38.72894 | -107.91547 | 8558 ft | 185 kts | 196° |
| 2026-04-19 13:18 | 38.71666 | -107.91991 | 8356 ft | 183 kts | 195° |
| 2026-04-19 13:18 | 38.70422 | -107.92334 | 8155 ft | 182 kts | 185° |
| 2026-04-19 13:18 | 38.69171 | -107.92194 | 7999 ft | 179 kts | 173° |
| 2026-04-19 13:19 | 38.67937 | -107.91975 | 7837 ft | 179 kts | 173° |
| 2026-04-19 13:19 | 38.66684 | -107.91752 | 7611 ft | 181 kts | 172° |
| 2026-04-19 13:19 | 38.65528 | -107.91487 | 7759 ft | 162 kts | 168° |
| 2026-04-19 13:19 | 38.64488 | -107.91090 | 7816 ft | 148 kts | 162° |
| 2026-04-19 13:20 | 38.63566 | -107.90690 | 7777 ft | 134 kts | 165° |
| 2026-04-19 13:20 | 38.62704 | -107.90358 | 7857 ft | 123 kts | 166° |
| 2026-04-19 13:20 | 38.61919 | -107.90030 | 7767 ft | 117 kts | 161° |
| 2026-04-19 13:20 | 38.61180 | -107.89669 | 7633 ft | 113 kts | 161° |
| 2026-04-19 13:21 | 38.60430 | -107.89357 | 7416 ft | 111 kts | 165° |
| 2026-04-19 13:21 | 38.59678 | -107.89219 | 7174 ft | 110 kts | 181° |
| 2026-04-19 13:21 | 38.58913 | -107.89285 | 6952 ft | 110 kts | 184° |
| 2026-04-19 13:21 | 38.58152 | -107.89353 | 6790 ft | 109 kts | 182° |
| 2026-04-19 13:22 | 38.57423 | -107.89368 | 6700 ft | 102 kts | 178° |
| 2026-04-19 13:22 | 38.56720 | -107.89350 | 6560 ft | 99 kts | 177° |
| 2026-04-19 13:22 | 38.56034 | -107.89323 | 6396 ft | 101 kts | 178° |
| 2026-04-19 13:22 | 38.55324 | -107.89298 | 6267 ft | 101 kts | 177° |
| 2026-04-19 13:23 | 38.54647 | -107.89281 | 6208 ft | 95 kts | 179° |
| 2026-04-19 13:23 | 38.53976 | -107.89284 | 6087 ft | 99 kts | 179° |
| 2026-04-19 13:23 | 38.53271 | -107.89273 | 5877 ft | 99 kts | 178° |
| 2026-04-19 13:23 | 38.52651 | -107.89272 | 5766 ft | 75 kts | 180° |
| 2026-04-19 13:24 | 38.52262 | -107.89269 | 5766 ft | 39 kts | 182° |
| 2026-04-19 13:24 | 38.52067 | -107.89269 | 5766 ft | 18 kts | 179° |
| 2026-04-19 13:24 | 38.51962 | -107.89268 | 5766 ft | 14 kts | 180° |
| 2026-04-19 13:24 | 38.51881 | -107.89288 | 5766 ft | 9 kts | 240° |
| 2026-04-19 13:25 | 38.51875 | -107.89343 | 5766 ft | 4 kts | 271° |
| 2026-04-19 13:25 | 38.51875 | -107.89366 | 5766 ft | 6 kts | 271° |
| 2026-04-19 13:25 | 38.51839 | -107.89391 | 5766 ft | 9 kts | 181° |
| 2026-04-19 13:25 | 38.51757 | -107.89393 | 5766 ft | 14 kts | 181° |
| 2026-04-19 13:26 | 38.51636 | -107.89392 | 5766 ft | 19 kts | 179° |
| 2026-04-19 13:26 | 38.51493 | -107.89392 | 5766 ft | 22 kts | 179° |
| 2026-04-19 13:26 | 38.51328 | -107.89392 | 5766 ft | 25 kts | 180° |
| 2026-04-19 13:26 | 38.51148 | -107.89392 | 5766 ft | 26 kts | 181° |
| 2026-04-19 13:27 | 38.50966 | -107.89391 | 5766 ft | 26 kts | 178° |
| 2026-04-19 13:27 | 38.50786 | -107.89393 | 5766 ft | 26 kts | 180° |
| 2026-04-19 13:27 | 38.50607 | -107.89393 | 5766 ft | 26 kts | 179° |
| 2026-04-19 13:27 | 38.50442 | -107.89394 | 5766 ft | 21 kts | 179° |
| 2026-04-19 13:28 | 38.50311 | -107.89391 | 5766 ft | 17 kts | 178° |
| 2026-04-19 13:28 | 38.50221 | -107.89438 | 5766 ft | 14 kts | 222° |
| 2026-04-19 13:28 | 38.50152 | -107.89527 | 5766 ft | 15 kts | 227° |
| 2026-04-19 13:28 | 38.50076 | -107.89627 | 5766 ft | 17 kts | 226° |
| 2026-04-19 13:29 | 38.49997 | -107.89739 | 5766 ft | 12 kts | 209° |
| 2026-04-19 13:29 | 38.49969 | -107.89773 | 5766 ft | 0 kts | 299° |